Latest Weather Observations for Warburton

IDD60801

Issued at 1:01 pm CST Saturday 30 July 2016 (issued every 30 minutes, with the page automatically refreshed every 10 minutes)

About weather observations | Map of weather stations | Latest weather observations for NT | Other Formats
Station Details ID: 013011 Name: WARBURTON AIRFIELD Lat: -26.13 Lon: 126.58 Height: 459.0 m
Data from the previous 72 hours. | See also: Recent months at Warburton
Date/Time
CST
Temp
°C
App
Temp
°C
Dew
Point
°C
Rel
Hum
%
Delta-T
°C
Wind Press
QNH
hPa
Press
MSL
hPa
Rain since
9am
mm
Dir  Spd
km/h
Gust
km/h
Spd
kts
Gust
kts
30/01:00pm 25.6 20.1 -2.1 16 12.6 NNW 17 24 9 13 1020.2 - 0.0
30/12:30pm 25.4 20.0 -1.4 17 12.3 NNW 17 20 9 11 1020.8 - 0.0
30/12:00pm 25.1 19.8 -0.9 18 12.1 N 17 26 9 14 1021.1 - 0.0
30/11:30am 23.5 17.6 -0.7 20 11.1 N 20 28 11 15 1021.5 - 0.0
30/11:00am 22.0 16.8 -0.1 23 10.2 N 17 22 9 12 1021.8 - 0.0
30/10:30am 20.4 16.1 0.8 27 9.0 N 13 19 7 10 1021.7 1021.4 0.0
30/10:00am 19.4 15.1 0.9 29 8.5 N 13 17 7 9 1021.8 - 0.0
30/09:30am 16.9 13.0 1.4 35 7.0 N 11 13 6 7 1021.6 - 0.0
30/09:00am 15.1 11.4 0.2 36 6.5 N 9 13 5 7 1021.1 - 0.0
30/08:30am 12.4 8.8 0.8 45 5.0 N 9 13 5 7 1021.0 - 0.0
30/08:00am 9.5 6.5 1.9 59 3.3 N 7 9 4 5 1021.1 - 0.0
30/07:30am 8.8 5.3 1.5 60 3.1 N 9 13 5 7 1020.9 1020.6 0.0
30/07:00am 7.6 4.2 1.9 67 2.4 N 9 9 5 5 1020.9 - 0.0
30/06:30am 8.2 5.2 1.8 64 2.7 N 7 9 4 5 1020.7 - 0.0
30/06:00am 8.3 5.4 2.8 68 2.4 N 7 9 4 5 1020.6 - 0.0
30/05:30am 8.4 5.1 2.2 65 2.7 N 9 9 5 5 1020.4 - 0.0
30/05:00am 8.2 5.4 2.0 65 2.6 N 6 7 3 4 1020.4 - 0.0
30/04:30am 7.7 5.1 3.0 72 2.0 WNW 6 6 3 3 1020.5 1020.2 0.0
30/04:00am 8.0 5.3 3.5 73 2.0 NNW 7 7 4 4 1020.5 - 0.0
30/03:30am 8.5 5.7 2.9 68 2.4 N 7 9 4 5 1020.6 - 0.0
30/03:00am 8.2 5.4 3.3 71 2.2 N 7 9 4 5 1020.7 - 0.0
30/02:30am 8.5 5.7 3.4 70 2.2 N 7 7 4 4 1020.8 - 0.0
30/02:00am 9.1 6.3 3.3 67 2.6 NNW 7 7 4 4 1020.8 - 0.0
30/01:30am 9.7 7.3 4.1 68 2.5 WNW 6 7 3 4 1021.0 1020.7 0.0
30/01:00am 10.3 7.7 4.0 65 2.9 N 7 9 4 5 1020.8 - 0.0
30/12:30am 10.3 8.9 3.8 64 2.9 CALM 0 0 0 0 1021.2 - 0.0
30/12:00am 10.9 9.2 3.9 62 3.2 N 2 7 1 4 1021.5 - 0.0
 
Date/Time
CST
Temp
°C
App
Temp
°C
Dew
Point
°C
Rel
Hum
%
Delta-T
°C
Wind Press
QNH
hPa
Press
MSL
hPa
Rain since
9am
mm
Dir  Spd
km/h
Gust
km/h
Spd
kts
Gust
kts
29/11:30pm 12.2 10.8 3.4 55 4.0 CALM 0 0 0 0 1021.7 - 0.0
29/11:00pm 12.4 11.0 3.4 54 4.1 CALM 0 0 0 0 1021.5 - 0.0
29/10:30pm 12.0 9.2 3.0 54 4.0 NNE 7 9 4 5 1021.6 1021.3 0.0
29/10:00pm 12.0 10.3 1.9 50 4.4 CALM 0 6 0 3 1021.6 - 0.0
29/09:30pm 12.9 9.9 1.9 47 4.9 NE 7 7 4 4 1021.3 - 0.0
29/09:00pm 14.6 11.9 0.5 38 6.2 NNW 4 6 2 3 1021.2 - 0.0
29/08:30pm 15.5 12.0 1.3 38 6.4 NNE 9 11 5 6 1020.7 - 0.0
29/08:00pm 17.1 13.0 -0.1 31 7.6 NNE 11 13 6 7 1020.3 - 0.0
29/07:30pm 18.2 14.0 -0.6 28 8.3 NNE 11 11 6 6 1020.1 1019.8 0.0
29/07:00pm 20.1 16.8 0.0 26 9.1 N 7 9 4 5 1020.1 - 0.0
29/06:30pm 22.5 18.1 -2.2 19 10.9 N 11 13 6 7 1020.1 - 0.0
29/06:00pm 24.1 19.7 -2.4 17 11.8 NNW 11 15 6 8 1020.2 - 0.0
29/05:30pm 24.7 19.8 -3.6 15 12.4 NNW 13 20 7 11 1020.2 - 0.0
29/05:00pm 24.8 19.1 -3.6 15 12.5 NW 17 22 9 12 1020.3 - 0.0
29/04:30pm 24.9 20.2 -1.8 17 12.1 N 13 19 7 10 1020.3 1020.0 0.0
29/04:00pm 24.5 19.4 -2.1 17 12.0 N 15 22 8 12 1020.5 - 0.0
29/03:30pm 24.3 19.1 -3.1 16 12.1 NNW 15 22 8 12 1020.7 - 0.0
29/03:00pm 24.3 18.7 -3.1 16 12.1 NNW 17 24 9 13 1021.2 - 0.0
29/02:30pm 23.5 18.4 -2.2 18 11.5 N 15 28 8 15 1021.7 - 0.0
29/02:00pm 23.9 18.8 -1.8 18 11.6 N 15 26 8 14 1022.3 - 0.0
29/01:30pm 23.4 18.1 -0.8 20 11.0 N 17 22 9 12 1022.8 1022.5 0.0
29/01:00pm 22.6 17.9 -1.5 20 10.8 N 13 20 7 11 1023.8 - 0.0
29/12:30pm 21.9 16.3 -2.7 19 10.7 NNW 17 20 9 11 1024.4 - 0.0
29/12:00pm 21.5 16.9 -1.1 22 10.1 N 13 20 7 11 1024.8 - 0.0
29/11:30am 20.3 16.0 1.2 28 8.9 N 13 20 7 11 1025.2 - 0.0
29/11:00am 19.5 15.3 1.5 30 8.4 N 13 22 7 12 1025.5 - 0.0
29/10:30am 18.1 14.0 2.4 35 7.3 NNE 13 17 7 9 1025.5 1025.3 0.0
29/10:00am 17.1 12.7 2.7 38 6.7 N 15 20 8 11 1025.3 - 0.0
29/09:30am 15.4 11.2 1.9 40 6.1 NNE 13 19 7 10 1025.2 - 0.0
29/09:00am 14.1 10.0 2.0 44 5.4 NNE 13 19 7 10 1024.6 - 0.0
29/08:30am 12.6 8.4 1.9 48 4.7 NNE 13 19 7 10 1024.1 - 0.0
29/08:00am 9.5 5.7 1.7 58 3.3 NNE 11 13 6 7 1023.6 - 0.0
29/07:30am 9.4 5.2 1.6 58 3.3 NNE 13 15 7 8 1023.3 1023.1 0.0
29/07:00am 8.6 4.9 2.4 65 2.7 NNE 11 13 6 7 1023.0 - 0.0
29/06:30am 5.0 1.7 2.7 85 1.0 NE 9 11 5 6 1023.0 - 0.0
29/06:00am 5.0 2.1 2.5 84 1.0 NNE 7 9 4 5 1022.8 - 0.0
29/05:30am 5.5 2.8 2.5 81 1.3 N 6 7 3 4 1022.8 - 0.0
29/05:00am 6.0 3.2 3.2 82 1.2 N 7 7 4 4 1022.7 - 0.0
29/04:30am 5.5 2.6 2.8 83 1.1 E 7 9 4 5 1022.9 1022.6 0.0
29/04:00am 6.1 4.7 3.6 84 1.1 CALM 0 0 0 0 1023.3 - 0.0
29/03:30am 6.1 4.7 3.4 83 1.2 CALM 0 0 0 0 1023.0 - 0.0
29/03:00am 6.4 5.0 3.6 82 1.2 CALM 0 0 0 0 1022.9 - 0.0
29/02:30am 6.9 5.5 3.5 79 1.5 CALM 0 0 0 0 1023.3 - 0.0
29/02:00am 6.8 5.4 3.4 79 1.5 CALM 0 0 0 0 1023.3 - 0.0
29/01:30am 7.2 5.8 3.6 78 1.6 CALM 0 0 0 0 1023.5 1023.3 0.0
29/01:00am 7.6 6.2 3.8 77 1.7 CALM 0 0 0 0 1023.8 - 0.0
29/12:30am 7.8 6.4 3.7 75 1.8 CALM 0 0 0 0 1023.9 - 0.0
29/12:00am 8.6 7.2 3.6 71 2.2 CALM 0 0 0 0 1024.3 - 0.0
 
Date/Time
CST
Temp
°C
App
Temp
°C
Dew
Point
°C
Rel
Hum
%
Delta-T
°C
Wind Press
QNH
hPa
Press
MSL
hPa
Rain since
9am
mm
Dir  Spd
km/h
Gust
km/h
Spd
kts
Gust
kts
28/11:30pm 9.0 7.6 3.6 69 2.4 CALM 0 0 0 0 1024.6 - 0.0
28/11:00pm 9.2 7.7 3.2 66 2.7 CALM 0 0 0 0 1024.7 - 0.0
28/10:30pm 10.3 8.7 2.4 58 3.4 CALM 0 0 0 0 1024.6 1024.3 0.0
28/10:00pm 10.8 8.9 2.6 57 3.6 S 2 6 1 3 1024.7 - 0.0
28/09:30pm 11.1 8.4 3.6 60 3.4 SE 7 11 4 6 1024.6 - 0.0
28/09:00pm 11.9 10.4 2.9 54 4.0 CALM 0 0 0 0 1024.4 - 0.0
28/08:30pm 13.1 11.5 2.6 49 4.7 CALM 0 0 0 0 1024.2 - 0.0
28/08:00pm 14.3 11.5 2.2 44 5.5 ENE 6 7 3 4 1024.0 - 0.0
28/07:30pm 15.4 12.2 2.9 43 5.8 ENE 9 9 5 5 1023.6 1023.4 0.0
28/07:00pm 18.2 16.5 1.7 33 7.6 CALM 0 0 0 0 1023.6 - 0.0
28/06:30pm 21.6 19.6 0.2 24 9.9 CALM 0 0 0 0 1023.5 - 0.0
28/06:00pm 22.9 20.5 -0.6 21 10.8 N 2 7 1 4 1023.4 - 0.0
28/05:30pm 23.5 20.4 -0.1 21 11.0 NNE 6 11 3 6 1023.3 - 0.0
28/05:00pm 23.8 20.6 -0.5 20 11.2 NNE 6 11 3 6 1023.3 - 0.0
28/04:30pm 23.4 20.1 -0.1 21 10.9 NNE 7 13 4 7 1023.5 1023.3 0.0
28/04:00pm 23.5 20.4 -0.1 21 11.0 NNW 6 13 3 7 1023.8 - 0.0
28/03:30pm 23.3 19.7 0.4 22 10.7 N 9 15 5 8 1023.9 - 0.0
28/03:00pm 23.0 19.0 0.8 23 10.5 N 11 20 6 11 1024.2 - 0.0
28/02:30pm 22.1 18.1 0.6 24 10.0 N 11 17 6 9 1024.8 - 0.0
28/02:00pm 22.2 18.0 1.8 26 9.7 N 13 20 7 11 1025.2 - 0.0
28/01:30pm 21.8 17.7 2.0 27 9.4 NNE 13 20 7 11 1025.6 1025.4 0.0
28/01:00pm 20.9 16.6 1.2 27 9.2 N 13 20 7 11 1026.5 - 0.0
28/12:30pm 20.2 15.9 3.0 32 8.3 N 15 22 8 12 1027.1 - 0.0
28/12:00pm 19.4 15.1 3.2 34 7.8 NNE 15 19 8 10 1027.7 - 0.0
28/11:30am 18.6 13.6 3.6 37 7.2 NNE 19 26 10 14 1028.1 - 0.0
28/11:00am 17.7 12.8 3.9 40 6.6 NE 19 28 10 15 1028.4 - 0.0
28/10:30am 16.1 11.0 3.9 44 5.8 NE 20 28 11 15 1028.7 1028.4 0.0
28/10:00am 14.4 9.4 4.4 51 4.7 NE 20 28 11 15 1028.4 - 0.0
28/09:30am 13.1 8.1 3.7 53 4.3 NE 19 28 10 15 1028.5 - 0.0
28/09:00am 12.3 8.9 4.0 57 3.8 ENE 11 15 6 8 1028.2 - 0.0
28/08:30am 9.3 7.3 4.5 72 2.2 SE 4 7 2 4 1028.1 - 0.0
28/08:00am 6.5 4.0 3.5 81 1.3 E 6 7 3 4 1027.8 - 0.0
28/07:30am 7.1 5.0 3.7 79 1.5 SE 4 7 2 4 1027.5 1027.3 0.0
28/07:00am 6.8 3.7 3.6 80 1.4 SE 9 11 5 6 1026.9 - 0.0
28/06:30am 7.8 4.4 3.8 76 1.8 SE 11 13 6 7 1026.5 - 0.0
28/06:00am 8.3 4.5 4.1 75 1.9 SE 13 15 7 8 1026.4 - 0.0
28/05:30am 8.0 5.5 3.8 75 1.9 ESE 6 7 3 4 1026.5 - 0.0
28/05:00am 8.6 5.2 4.0 73 2.1 ESE 11 11 6 6 1026.1 - 0.0
28/04:30am 9.6 5.8 4.0 68 2.5 ESE 13 17 7 9 1026.4 1026.1 0.0
28/04:00am 10.2 6.4 4.1 66 2.8 SE 13 17 7 9 1026.5 - 0.0
28/03:30am 10.5 6.8 4.2 65 2.9 SE 13 15 7 8 1026.5 - 0.0
28/03:00am 11.3 7.2 4.3 62 3.2 ESE 15 19 8 10 1026.3 - 0.0
28/02:30am 10.9 6.8 4.4 64 3.0 ESE 15 17 8 9 1026.6 - 0.0
28/02:00am 10.0 6.2 4.0 66 2.7 ESE 13 15 7 8 1026.7 - 0.0
28/01:30am 10.2 6.7 3.7 64 2.9 ESE 11 13 6 7 1026.9 1026.7 0.0
28/01:00am 10.9 7.5 3.9 62 3.2 ESE 11 13 6 7 1026.8 - 0.0
28/12:30am 11.1 7.3 3.9 61 3.3 ESE 13 15 7 8 1026.7 - 0.0
28/12:00am 11.1 7.6 3.6 60 3.4 SE 11 13 6 7 1026.9 - 0.0
 
Date/Time
CST
Temp
°C
App
Temp
°C
Dew
Point
°C
Rel
Hum
%
Delta-T
°C
Wind Press
QNH
hPa
Press
MSL
hPa
Rain since
9am
mm
Dir  Spd
km/h
Gust
km/h
Spd
kts
Gust
kts
27/11:30pm 11.4 7.9 3.7 59 3.5 ESE 11 13 6 7 1026.7 - 0.0
27/11:00pm 11.3 7.8 3.6 59 3.5 SE 11 13 6 7 1027.0 - 0.0
27/10:30pm 10.8 7.7 3.8 62 3.2 SE 9 11 5 6 1027.0 1026.8 0.0
27/10:00pm 10.7 7.6 3.7 62 3.2 SE 9 11 5 6 1026.9 - 0.0
27/09:30pm 10.4 7.7 3.9 64 2.9 SSE 7 9 4 5 1026.9 - 0.0
27/09:00pm 10.9 8.2 3.7 61 3.3 SE 7 9 4 5 1026.7 - 0.0
27/08:30pm 11.4 8.3 3.7 59 3.5 SE 9 9 5 5 1026.5 - 0.0
27/08:00pm 12.6 9.8 3.0 52 4.4 SE 7 9 4 5 1026.5 - 0.0
27/07:30pm 14.4 11.7 2.6 45 5.4 SE 6 9 3 5 1026.1 1025.8 0.0
27/07:00pm 16.0 12.7 2.4 40 6.3 SE 9 11 5 6 1025.8 - 0.0
27/06:30pm 18.0 13.8 1.9 34 7.5 ESE 13 17 7 9 1025.3 - 0.0
27/06:00pm 19.1 13.7 1.1 30 8.3 E 19 30 10 16 1024.9 - 0.0
27/05:30pm 19.8 14.4 1.3 29 8.6 E 19 26 10 14 1025.2 - 0.0
27/05:00pm 20.1 15.1 1.5 29 8.7 ESE 17 24 9 13 1025.1 - 0.0
27/04:30pm 20.2 14.9 2.1 30 8.5 E 19 30 10 16 1025.2 1025.0 0.0
27/04:00pm 19.9 15.1 2.7 32 8.2 ESE 17 28 9 15 1025.5 - 0.0
27/03:30pm 19.6 14.4 2.5 32 8.1 SE 19 26 10 14 1025.9 - 0.0
27/03:00pm 19.4 15.0 2.7 33 7.9 E 15 22 8 12 1026.4 - 0.0

Other Formats:

Comma delimited format used in spreadsheet applications
http://www.bom.gov.au/fwo/IDD60801/IDD60801.94457.axf

JavaScript Object Notation format (JSON) in row-major order
http://www.bom.gov.au/fwo/IDD60801/IDD60801.94457.json